createdAt,value
2019-03-25T00:00:58.792Z,45.17
2019-03-25T00:03:30.725Z,41.20
2019-03-25T00:06:03.269Z,41.63
2019-03-25T00:08:37.253Z,42.40
2019-03-25T00:11:09.811Z,41.02
2019-03-25T00:13:42.513Z,44.00
2019-03-25T00:16:14.598Z,43.95
2019-03-25T00:18:46.555Z,44.13
2019-03-25T00:21:19.090Z,41.48
2019-03-25T00:23:51.913Z,42.93
2019-03-25T00:26:24.056Z,45.25
2019-03-25T00:28:56.213Z,44.23
2019-03-25T00:31:28.277Z,43.02
2019-03-25T00:34:00.463Z,43.65
2019-03-25T00:36:33.459Z,48.15
2019-03-25T00:39:07.356Z,46.25
2019-03-25T00:41:39.662Z,49.25
2019-03-25T00:44:11.998Z,45.17
2019-03-25T00:46:44.163Z,38.35
2019-03-25T00:49:16.294Z,42.53
2019-03-25T00:51:49.136Z,49.23
2019-03-25T00:54:21.663Z,44.00
2019-03-25T00:56:53.891Z,38.30
2019-03-25T00:59:26.224Z,43.40
2019-03-25T01:01:58.353Z,41.28
2019-03-25T01:04:30.534Z,47.00
2019-03-25T01:07:03.797Z,41.00
2019-03-25T01:09:35.804Z,41.60
2019-03-25T01:12:08.662Z,36.55
2019-03-25T01:14:41.032Z,45.92
2019-03-25T01:17:13.389Z,41.37
2019-03-25T01:19:45.453Z,43.40
2019-03-25T01:22:17.616Z,39.48
2019-03-25T01:25:00.920Z,35.52
2019-03-25T01:27:24.533Z,46.53
2019-03-25T01:29:56.730Z,37.25
2019-03-25T01:32:28.930Z,53.87
2019-03-25T01:35:01.030Z,37.48
2019-03-25T01:37:33.284Z,43.65
2019-03-25T01:40:07.449Z,35.35
2019-03-25T01:42:39.908Z,41.85
2019-03-25T01:45:12.796Z,40.67
2019-03-25T01:47:44.854Z,36.17
2019-03-25T01:50:17.531Z,38.10
2019-03-25T01:52:49.742Z,33.60
2019-03-25T01:55:22.287Z,36.48
2019-03-25T01:57:54.882Z,33.02
2019-03-25T02:00:27.545Z,39.30
2019-03-25T02:02:59.928Z,37.60
2019-03-25T02:05:32.282Z,32.10
2019-03-25T02:08:04.458Z,34.95
2019-03-25T02:10:37.881Z,33.65
2019-03-25T02:13:12.589Z,36.13
2019-03-25T02:15:44.814Z,36.30
2019-03-25T02:18:17.079Z,34.43
2019-03-25T02:20:49.279Z,26.62
2019-03-25T02:23:22.404Z,30.15
2019-03-25T02:25:58.985Z,28.85
2019-03-25T02:28:31.057Z,34.27
2019-03-25T02:31:03.284Z,31.93
2019-03-25T02:33:35.706Z,30.05
2019-03-25T02:36:08.488Z,28.02
2019-03-25T02:38:59.760Z,30.35
2019-03-25T02:41:32.003Z,27.13
2019-03-25T02:44:03.918Z,28.38
2019-03-25T02:46:36.450Z,25.27
2019-03-25T02:49:08.683Z,31.62
2019-03-25T02:51:40.709Z,35.83
2019-03-25T02:54:12.793Z,26.00
2019-03-25T02:56:44.776Z,21.07
2019-03-25T02:59:17.225Z,24.32
2019-03-25T03:01:51.781Z,30.08
2019-03-25T03:04:23.835Z,23.95
2019-03-25T03:06:56.763Z,20.45
2019-03-25T03:09:28.992Z,24.57
2019-03-25T03:12:02.140Z,26.35
2019-03-25T03:14:34.188Z,22.37
2019-03-25T03:17:06.471Z,27.73
2019-03-25T03:19:38.562Z,24.92
2019-03-25T03:22:36.224Z,31.42
2019-03-25T03:25:12.886Z,21.48
2019-03-25T03:27:45.874Z,24.00
2019-03-25T03:30:18.326Z,20.17
2019-03-25T03:32:50.771Z,20.43
2019-03-25T03:35:23.689Z,22.55
2019-03-25T03:37:56.233Z,21.50
2019-03-25T03:40:28.193Z,30.08
2019-03-25T03:43:00.762Z,20.00
2019-03-25T03:45:33.514Z,22.58
2019-03-25T03:48:06.132Z,22.55
2019-03-25T03:50:38.403Z,19.80
2019-03-25T03:53:11.094Z,21.97
2019-03-25T03:55:43.115Z,21.50
2019-03-25T03:58:16.582Z,24.35
2019-03-25T04:00:49.000Z,22.80
2019-03-25T04:03:21.183Z,20.30
2019-03-25T04:05:53.098Z,27.95
2019-03-25T04:08:25.669Z,22.65
2019-03-25T04:10:58.028Z,23.07
2019-03-25T04:13:31.010Z,22.02
2019-03-25T04:16:03.817Z,30.70
2019-03-25T04:18:44.913Z,24.40
2019-03-25T04:21:29.056Z,33.15
2019-03-25T04:24:02.822Z,26.60
2019-03-25T04:26:47.729Z,38.73
2019-03-25T04:29:19.802Z,21.02
2019-03-25T04:31:51.539Z,23.87
2019-03-25T04:34:42.544Z,20.00
2019-03-25T04:37:14.898Z,20.25
2019-03-25T04:39:48.322Z,23.83
2019-03-25T04:42:20.455Z,19.57
2019-03-25T04:44:52.844Z,24.98
2019-03-25T04:47:25.523Z,28.35
2019-03-25T04:49:57.657Z,16.55
2019-03-25T04:52:29.850Z,17.37
2019-03-25T04:55:02.151Z,18.32
2019-03-25T04:57:34.416Z,18.70
2019-03-25T05:00:08.627Z,16.62
2019-03-25T05:02:40.884Z,17.27
2019-03-25T05:05:13.262Z,18.15
2019-03-25T05:07:45.286Z,18.65
2019-03-25T05:10:17.974Z,19.65
2019-03-25T05:12:50.029Z,17.52
2019-03-25T05:15:23.471Z,17.98
2019-03-25T05:17:55.401Z,15.90
2019-03-25T05:20:27.772Z,17.77
2019-03-25T05:22:59.503Z,17.52
2019-03-25T05:25:32.158Z,23.05
2019-03-25T05:28:04.660Z,30.52
2019-03-25T05:30:37.536Z,25.77
2019-03-25T05:33:10.918Z,17.50
2019-03-25T05:35:46.768Z,20.27
2019-03-25T05:38:30.870Z,17.15
2019-03-25T05:41:03.279Z,19.75
2019-03-25T05:43:35.148Z,16.37
2019-03-25T05:46:07.322Z,19.20
2019-03-25T05:48:40.151Z,19.48
2019-03-25T05:51:12.332Z,18.80
2019-03-25T05:53:44.373Z,16.80
2019-03-25T05:56:16.430Z,18.32
2019-03-25T05:58:48.527Z,17.25
2019-03-25T06:01:21.291Z,19.25
2019-03-25T06:03:54.194Z,16.70
2019-03-25T06:06:25.915Z,22.00
2019-03-25T06:08:57.852Z,18.15
2019-03-25T06:11:30.492Z,18.90
2019-03-25T06:14:02.435Z,16.32
2019-03-25T06:16:35.515Z,16.27
2019-03-25T06:19:26.639Z,22.80
2019-03-25T06:21:59.259Z,16.27
2019-03-25T06:24:31.421Z,21.68
2019-03-25T06:27:13.648Z,16.77
2019-03-25T06:29:37.175Z,20.97
2019-03-25T06:32:08.727Z,26.57
2019-03-25T06:34:40.886Z,18.10
2019-03-25T06:37:13.574Z,17.98
2019-03-25T06:39:45.826Z,17.95
2019-03-25T06:42:17.928Z,18.87
2019-03-25T06:44:50.292Z,26.60
2019-03-25T06:47:22.331Z,17.15
2019-03-25T06:49:57.576Z,15.35
2019-03-25T06:52:29.952Z,19.37
2019-03-25T06:55:02.192Z,17.90
2019-03-25T06:57:35.108Z,16.77
2019-03-25T07:00:18.883Z,21.15
2019-03-25T07:02:51.626Z,16.32
2019-03-25T07:05:33.697Z,15.55
2019-03-25T07:08:06.419Z,22.22
2019-03-25T07:10:39.776Z,17.52
2019-03-25T07:13:17.698Z,18.95
2019-03-25T07:15:50.200Z,15.53
2019-03-25T07:18:23.678Z,16.95
2019-03-25T07:20:56.056Z,16.40
2019-03-25T07:23:28.207Z,14.43
2019-03-25T07:26:00.557Z,15.18
2019-03-25T07:28:32.834Z,20.45
2019-03-25T07:31:04.848Z,15.80
2019-03-25T07:33:37.048Z,16.62
2019-03-25T07:36:09.158Z,18.67
2019-03-25T07:38:41.216Z,17.20
2019-03-25T07:41:13.785Z,19.67
2019-03-25T07:43:45.915Z,16.05
2019-03-25T07:46:18.122Z,16.00
2019-03-25T07:48:50.177Z,23.18
2019-03-25T07:51:22.158Z,17.12
2019-03-25T07:53:55.429Z,21.37
2019-03-25T07:56:27.878Z,19.62
2019-03-25T07:59:00.184Z,25.62
2019-03-25T08:01:33.185Z,15.93
2019-03-25T08:04:05.311Z,20.23
2019-03-25T08:06:37.659Z,15.93
2019-03-25T08:09:29.300Z,24.00
2019-03-25T08:12:01.329Z,20.72
2019-03-25T08:14:33.234Z,17.00
2019-03-25T08:17:06.018Z,17.00
2019-03-25T08:19:41.700Z,18.65
2019-03-25T08:22:14.130Z,15.88
2019-03-25T08:25:06.047Z,21.55
2019-03-25T08:27:39.257Z,20.77
2019-03-25T08:30:12.513Z,16.00
2019-03-25T08:32:45.231Z,16.80
2019-03-25T08:35:17.507Z,15.70
2019-03-25T08:37:51.190Z,16.67
2019-03-25T08:40:23.293Z,21.60
2019-03-25T08:42:55.127Z,19.85
2019-03-25T08:45:28.441Z,18.12
2019-03-25T08:48:00.562Z,18.10
2019-03-25T08:50:32.455Z,15.70
2019-03-25T08:53:04.871Z,17.40
2019-03-25T08:55:36.890Z,18.90
2019-03-25T08:58:12.269Z,17.75
2019-03-25T09:00:43.283Z,26.23
2019-03-25T09:03:15.370Z,17.02
2019-03-25T09:05:47.631Z,15.70
2019-03-25T09:08:38.897Z,17.30
2019-03-25T09:11:12.499Z,27.00
2019-03-25T09:13:45.650Z,19.55
2019-03-25T09:16:17.946Z,15.68
2019-03-25T09:18:51.273Z,17.85
2019-03-25T09:21:24.811Z,15.90
2019-03-25T09:24:05.733Z,19.82
2019-03-25T09:26:38.282Z,21.57
2019-03-25T09:29:10.420Z,19.02
2019-03-25T09:31:42.499Z,18.07
2019-03-25T09:34:15.916Z,17.12
2019-03-25T09:36:48.016Z,19.57
2019-03-25T09:39:19.933Z,18.02
2019-03-25T09:41:52.364Z,15.78
2019-03-25T09:44:24.628Z,18.65
2019-03-25T09:46:56.564Z,17.35
2019-03-25T09:49:29.384Z,18.57
2019-03-25T09:52:01.674Z,16.32
2019-03-25T09:54:34.043Z,17.48
2019-03-25T09:57:06.898Z,18.32
2019-03-25T09:59:39.000Z,15.58
2019-03-25T10:02:30.358Z,15.50
2019-03-25T10:05:02.930Z,19.00
2019-03-25T10:07:35.676Z,14.43
2019-03-25T10:10:09.990Z,19.62
2019-03-25T10:12:42.313Z,20.02
2019-03-25T10:15:14.671Z,20.50
2019-03-25T10:17:48.288Z,22.82
2019-03-25T10:20:21.208Z,20.85
2019-03-25T10:22:54.016Z,16.60
2019-03-25T10:25:26.139Z,15.20
2019-03-25T10:27:58.990Z,21.48
2019-03-25T10:30:31.240Z,26.45
2019-03-25T10:33:03.581Z,20.57
2019-03-25T10:35:36.565Z,25.25
2019-03-25T10:38:19.180Z,48.25
2019-03-25T10:41:02.963Z,22.70
2019-03-25T10:43:35.225Z,16.05
2019-03-25T10:46:09.726Z,21.35
2019-03-25T10:48:41.789Z,22.90
2019-03-25T10:51:14.026Z,19.60
2019-03-25T10:53:46.371Z,19.62
2019-03-25T10:56:18.421Z,16.95
2019-03-25T10:58:57.971Z,23.70
2019-03-25T11:01:24.494Z,21.73
2019-03-25T11:03:56.728Z,23.25
2019-03-25T11:06:28.810Z,22.62
2019-03-25T11:09:01.186Z,18.23
2019-03-25T11:11:34.260Z,22.60
2019-03-25T11:14:26.729Z,25.75
2019-03-25T11:16:58.793Z,21.77
2019-03-25T11:19:32.014Z,25.02
2019-03-25T11:22:04.059Z,21.90
2019-03-25T11:24:37.245Z,23.90
2019-03-25T11:27:09.716Z,23.02
2019-03-25T11:29:49.216Z,20.60
2019-03-25T11:32:21.934Z,27.27
2019-03-25T11:34:54.152Z,27.87
2019-03-25T11:37:35.830Z,33.28
2019-03-25T11:40:29.558Z,35.78
2019-03-25T11:43:01.980Z,27.30
2019-03-25T11:45:34.409Z,26.02
2019-03-25T11:48:26.965Z,27.10
2019-03-25T11:50:59.417Z,34.65
2019-03-25T11:53:31.643Z,30.82
2019-03-25T11:56:04.318Z,30.95
2019-03-25T11:58:36.593Z,30.37
2019-03-25T12:01:09.896Z,38.98
2019-03-25T12:03:42.539Z,38.05
2019-03-25T12:06:14.978Z,37.53
2019-03-25T12:09:08.911Z,32.60
2019-03-25T12:11:41.071Z,26.10
2019-03-25T12:14:13.209Z,28.10
2019-03-25T12:17:05.537Z,23.90
2019-03-25T12:19:38.361Z,25.43
2019-03-25T12:22:12.801Z,26.00
2019-03-25T12:24:44.310Z,29.15
2019-03-25T12:27:17.124Z,30.08
2019-03-25T12:29:49.237Z,28.77
2019-03-25T12:32:21.374Z,26.37
2019-03-25T12:35:14.130Z,29.42
2019-03-25T12:37:46.900Z,28.75
2019-03-25T12:40:19.364Z,28.92
2019-03-25T12:42:51.473Z,27.93
2019-03-25T12:45:24.271Z,30.75
2019-03-25T12:47:56.488Z,28.85
2019-03-25T12:50:28.733Z,26.15
2019-03-25T12:53:00.918Z,32.83
2019-03-25T12:55:33.302Z,38.33
2019-03-25T12:58:07.421Z,43.55
2019-03-25T13:00:42.740Z,33.00
2019-03-25T13:03:15.688Z,32.20
2019-03-25T13:05:47.818Z,36.30
2019-03-25T13:08:19.951Z,31.75
2019-03-25T13:10:53.176Z,29.10
2019-03-25T13:13:25.141Z,30.68
2019-03-25T13:16:01.049Z,30.68
2019-03-25T13:18:33.441Z,34.43
2019-03-25T13:21:06.266Z,39.23
2019-03-25T13:23:38.085Z,38.35
2019-03-25T13:26:10.295Z,34.23
2019-03-25T13:28:47.991Z,27.73
2019-03-25T13:31:20.254Z,25.62
2019-03-25T13:33:53.664Z,26.93
2019-03-25T13:36:26.036Z,28.17
2019-03-25T13:38:58.104Z,27.07
2019-03-25T13:41:30.074Z,23.12
2019-03-25T13:44:02.452Z,23.10
2019-03-25T13:46:35.131Z,25.02
2019-03-25T13:49:07.380Z,30.08
2019-03-25T13:51:40.192Z,24.95
2019-03-25T13:54:12.209Z,25.30
2019-03-25T13:56:44.544Z,26.35
2019-03-25T13:59:16.585Z,26.35
2019-03-25T14:01:48.538Z,32.40
2019-03-25T14:04:21.539Z,22.22
2019-03-25T14:06:53.736Z,23.85
2019-03-25T14:09:25.795Z,26.70
2019-03-25T14:12:18.331Z,25.97
2019-03-25T14:14:50.577Z,30.72
2019-03-25T14:17:22.625Z,26.30
2019-03-25T14:19:54.994Z,25.25
2019-03-25T14:22:27.208Z,26.20
2019-03-25T14:24:58.936Z,28.30
2019-03-25T14:27:31.474Z,25.40
2019-03-25T14:30:13.976Z,27.95
2019-03-25T14:32:38.315Z,29.95
2019-03-25T14:35:12.029Z,23.47
2019-03-25T14:37:44.444Z,27.00
2019-03-25T14:40:17.099Z,24.67
2019-03-25T14:42:50.001Z,24.35
2019-03-25T14:45:26.754Z,28.12
2019-03-25T14:47:56.336Z,30.95
2019-03-25T14:50:28.591Z,23.38
2019-03-25T14:53:00.706Z,23.73
2019-03-25T14:55:33.284Z,23.10
2019-03-25T14:58:05.452Z,26.17
2019-03-25T15:00:37.676Z,31.02
2019-03-25T15:03:10.104Z,24.18
2019-03-25T15:06:02.605Z,26.77
2019-03-25T15:08:35.661Z,24.52
2019-03-25T15:11:08.116Z,26.35
2019-03-25T15:13:40.703Z,26.42
2019-03-25T15:16:12.828Z,22.87
2019-03-25T15:18:45.223Z,24.07
2019-03-25T15:21:18.666Z,24.35
2019-03-25T15:23:50.996Z,31.17
2019-03-25T15:26:23.827Z,24.63
2019-03-25T15:28:55.769Z,25.43
2019-03-25T15:31:48.885Z,25.05
2019-03-25T15:34:21.535Z,31.60
2019-03-25T15:36:53.555Z,27.05
2019-03-25T15:39:25.787Z,26.55
2019-03-25T15:41:58.492Z,26.12
2019-03-25T15:44:30.586Z,27.60
2019-03-25T15:47:03.270Z,27.77
2019-03-25T15:49:35.402Z,32.33
2019-03-25T15:52:07.576Z,32.53
2019-03-25T15:54:39.811Z,30.55
2019-03-25T15:57:11.833Z,30.57
2019-03-25T15:59:44.529Z,32.55
2019-03-25T16:02:16.607Z,30.82
2019-03-25T16:04:48.420Z,37.25
2019-03-25T16:07:20.475Z,29.63
2019-03-25T16:09:52.777Z,29.30
2019-03-25T16:12:25.040Z,38.95
2019-03-25T16:14:57.334Z,30.70
2019-03-25T16:17:29.401Z,30.77
2019-03-25T16:20:01.663Z,29.45
2019-03-25T16:22:33.801Z,37.25
2019-03-25T16:25:09.036Z,34.92
2019-03-25T16:27:41.073Z,33.65
2019-03-25T16:30:13.830Z,34.13
2019-03-25T16:32:46.602Z,35.65
2019-03-25T16:35:18.979Z,31.15
2019-03-25T16:37:51.680Z,33.28
2019-03-25T16:40:24.067Z,31.48
2019-03-25T16:42:57.196Z,37.40
2019-03-25T16:45:29.248Z,34.27
2019-03-25T16:48:01.590Z,30.85
2019-03-25T16:50:33.753Z,33.83
2019-03-25T16:53:05.810Z,32.65
2019-03-25T16:55:38.277Z,36.70
2019-03-25T16:58:10.393Z,32.23
2019-03-25T17:00:43.331Z,31.65
2019-03-25T17:03:15.749Z,30.75
2019-03-25T17:05:47.758Z,30.12
2019-03-25T17:08:22.352Z,31.95
2019-03-25T17:10:56.641Z,29.90
2019-03-25T17:13:28.860Z,29.98
2019-03-25T17:16:01.786Z,29.75
2019-03-25T17:18:34.263Z,32.95
2019-03-25T17:21:06.914Z,31.97
2019-03-25T17:23:39.231Z,28.27
2019-03-25T17:26:11.533Z,31.27
2019-03-25T17:28:43.699Z,27.85
2019-03-25T17:31:20.824Z,30.95
2019-03-25T17:33:49.944Z,27.10
2019-03-25T17:36:22.486Z,26.80
2019-03-25T17:38:54.918Z,28.32
2019-03-25T17:41:26.998Z,32.78
2019-03-25T17:43:59.151Z,31.82
2019-03-25T17:46:31.282Z,34.55
2019-03-25T17:49:03.362Z,21.62
2019-03-25T17:51:35.946Z,23.38
2019-03-25T17:54:08.342Z,21.62
2019-03-25T17:56:40.602Z,23.18
2019-03-25T17:59:12.663Z,20.48
2019-03-25T18:01:45.396Z,21.48
2019-03-25T18:04:17.536Z,22.90
2019-03-25T18:06:49.668Z,22.05
2019-03-25T18:09:21.979Z,21.42
2019-03-25T18:11:54.204Z,24.00
2019-03-25T18:14:26.144Z,22.70
2019-03-25T18:16:58.656Z,26.02
2019-03-25T18:19:30.933Z,21.55
2019-03-25T18:22:02.879Z,23.77
2019-03-25T18:24:34.971Z,21.07
2019-03-25T18:27:06.993Z,20.85
2019-03-25T18:29:39.201Z,20.50
2019-03-25T18:32:12.494Z,23.70
2019-03-25T18:34:45.048Z,18.98
2019-03-25T18:37:19.979Z,22.95
2019-03-25T18:39:52.262Z,22.30
2019-03-25T18:42:24.418Z,20.60
2019-03-25T18:44:56.820Z,19.73
2019-03-25T18:47:29.036Z,22.62
2019-03-25T18:50:01.376Z,21.97
2019-03-25T18:52:33.504Z,23.77
2019-03-25T18:55:07.135Z,21.87
2019-03-25T18:57:39.089Z,20.12
2019-03-25T19:00:14.348Z,20.97
2019-03-25T19:02:46.485Z,19.25
2019-03-25T19:05:18.558Z,20.65
2019-03-25T19:07:51.407Z,18.67
2019-03-25T19:10:27.330Z,26.27
2019-03-25T19:13:00.298Z,20.75
2019-03-25T19:15:32.667Z,27.25
2019-03-25T19:18:04.496Z,19.42
2019-03-25T19:20:36.840Z,16.73
2019-03-25T19:23:08.967Z,20.10
2019-03-25T19:25:41.040Z,20.23
2019-03-25T19:28:13.518Z,17.85
2019-03-25T19:30:45.429Z,19.30
2019-03-25T19:33:17.481Z,22.02
2019-03-25T19:35:49.724Z,19.55
2019-03-25T19:38:23.005Z,19.98
2019-03-25T19:40:56.761Z,21.62
2019-03-25T19:43:28.750Z,17.30
2019-03-25T19:46:01.046Z,19.50
2019-03-25T19:48:33.595Z,21.12
2019-03-25T19:51:07.465Z,23.32
2019-03-25T19:53:40.132Z,26.00
2019-03-25T19:56:12.208Z,26.30
2019-03-25T19:58:44.717Z,25.75
2019-03-25T20:01:19.784Z,21.77
2019-03-25T20:03:52.239Z,20.52
2019-03-25T20:06:26.387Z,22.07
2019-03-25T20:08:58.715Z,27.37
2019-03-25T20:11:33.986Z,25.72
2019-03-25T20:14:06.309Z,25.32
2019-03-25T20:16:38.886Z,19.80
2019-03-25T20:19:11.538Z,25.52
2019-03-25T20:21:48.360Z,24.50
2019-03-25T20:24:20.516Z,25.20
2019-03-25T20:26:52.453Z,30.25
2019-03-25T20:29:24.981Z,22.67
2019-03-25T20:31:56.950Z,19.20
2019-03-25T20:34:29.178Z,20.20
2019-03-25T20:37:01.676Z,20.97
2019-03-25T20:39:34.162Z,19.77
2019-03-25T20:42:08.606Z,23.98
2019-03-25T20:44:43.437Z,24.60
2019-03-25T20:47:15.756Z,21.70
2019-03-25T20:49:47.918Z,19.90
2019-03-25T20:52:20.526Z,20.65
2019-03-25T20:54:52.576Z,24.63
2019-03-25T20:57:24.626Z,23.62
2019-03-25T20:59:57.248Z,23.90
2019-03-25T21:02:29.382Z,19.62
2019-03-25T21:05:01.487Z,21.62
2019-03-25T21:07:34.574Z,27.75
2019-03-25T21:10:09.116Z,25.80
2019-03-25T21:12:41.890Z,23.15
2019-03-25T21:15:14.456Z,22.22
2019-03-25T21:17:46.437Z,24.45
2019-03-25T21:20:18.732Z,24.05
2019-03-25T21:22:51.098Z,31.95
2019-03-25T21:25:23.510Z,21.57
2019-03-25T21:27:55.764Z,22.00
2019-03-25T21:30:28.421Z,25.40
2019-03-25T21:33:00.557Z,23.65
2019-03-25T21:35:33.036Z,24.20
2019-03-25T21:38:05.402Z,23.98
2019-03-25T21:40:38.045Z,25.32
2019-03-25T21:43:11.455Z,26.60
2019-03-25T21:45:44.039Z,29.98
2019-03-25T21:48:15.967Z,21.87
2019-03-25T21:50:48.433Z,22.87
2019-03-25T21:53:20.413Z,23.77
2019-03-25T21:55:52.522Z,24.40
2019-03-25T21:58:25.452Z,26.27
2019-03-25T22:00:57.453Z,23.40
2019-03-25T22:03:29.346Z,24.50
2019-03-25T22:06:01.204Z,28.62
2019-03-25T22:08:33.091Z,26.82
2019-03-25T22:11:05.546Z,28.60
2019-03-25T22:13:38.334Z,29.50
2019-03-25T22:16:10.342Z,27.48
2019-03-25T22:18:55.982Z,36.83
2019-03-25T22:21:27.950Z,26.95
2019-03-25T22:24:00.156Z,38.48
2019-03-25T22:26:33.109Z,29.10
2019-03-25T22:29:08.908Z,30.23
2019-03-25T22:31:41.078Z,25.62
2019-03-25T22:34:13.178Z,27.02
2019-03-25T22:36:45.210Z,29.20
2019-03-25T22:39:18.036Z,27.77
2019-03-25T22:41:50.193Z,28.23
2019-03-25T22:44:22.756Z,26.17
2019-03-25T22:46:54.695Z,27.95
2019-03-25T22:49:29.102Z,29.87
2019-03-25T22:52:00.956Z,26.73
2019-03-25T22:54:33.180Z,28.77
2019-03-25T22:57:05.211Z,28.10
2019-03-25T22:59:37.421Z,29.05
2019-03-25T23:02:10.466Z,32.80
2019-03-25T23:04:42.427Z,30.17
2019-03-25T23:07:14.571Z,33.90
2019-03-25T23:09:46.683Z,32.78
2019-03-25T23:12:18.866Z,35.30
2019-03-25T23:14:52.108Z,29.70
2019-03-25T23:17:25.074Z,35.55
2019-03-25T23:19:57.308Z,35.35
2019-03-25T23:22:29.420Z,31.45
2019-03-25T23:25:01.905Z,30.82
2019-03-25T23:27:34.282Z,34.33
2019-03-25T23:30:08.393Z,32.60
2019-03-25T23:32:40.316Z,37.48
2019-03-25T23:35:12.527Z,40.80
2019-03-25T23:37:45.340Z,36.42
2019-03-25T23:40:17.734Z,34.78
2019-03-25T23:42:49.863Z,35.13
2019-03-25T23:45:23.348Z,34.15
2019-03-25T23:48:02.590Z,39.00
2019-03-25T23:50:34.940Z,36.45
2019-03-25T23:53:07.156Z,34.80
2019-03-25T23:55:39.094Z,44.73
2019-03-25T23:58:11.492Z,41.18
